Latest Weather Observations for Newman Airport

IDW60801

Issued at 10:34 am WST Friday 28 July 2017 (issued every 30 minutes, with the page automatically refreshed every 10 minutes)

About weather observations | Map of weather stations | Latest weather observations for WA | Other Formats
Station Details ID: 007176 Name: NEWMAN AERO Lat: -23.42 Lon: 119.80 Height: 524.0 m
Data from the previous 72 hours. | See also: Recent months at Newman Airport
Date/Time
WST
Temp
°C
App
Temp
°C
Dew
Point
°C
Rel
Hum
%
Delta-T
°C
Wind Press
QNH
hPa
Press
MSL
hPa
Rain since
9am
mm
Dir  Spd
km/h
Gust
km/h
Spd
kts
Gust
kts
28/10:30am 27.0 21.2 -4.8 12 14.0 N 17 24 9 13 1019.5 1018.6 0.0
28/10:00am 26.1 21.8 -1.7 16 12.8 NNE 11 15 6 8 1019.8 1018.9 0.0
28/09:30am 23.2 19.6 0.3 22 10.7 N 9 13 5 7 1020.1 1019.3 0.0
28/09:00am 20.4 18.3 1.8 29 8.8 N 2 7 1 4 1020.1 1019.3 0.0
28/08:30am 17.4 15.4 0.1 31 7.7 CALM 0 0 0 0 1020.1 1019.3 0.0
28/08:00am 14.7 12.6 -0.6 35 6.5 CALM 0 0 0 0 1020.0 1019.1 0.0
28/07:30am 10.8 8.8 0.2 48 4.5 CALM 0 0 0 0 1019.6 1018.7 0.0
28/07:00am 8.3 6.3 -0.2 55 3.4 CALM 0 0 0 0 1019.3 1018.5 0.0
28/06:30am 7.8 5.8 0.1 58 3.1 CALM 0 0 0 0 1019.1 1018.3 0.0
28/06:00am 7.9 5.5 -0.3 56 3.3 SW 2 7 1 4 1019.0 1018.2 0.0
28/05:30am 7.9 4.5 -0.3 56 3.3 SSW 7 9 4 5 1018.9 1018.1 0.0
28/05:00am 8.5 6.1 -0.5 53 3.6 S 2 6 1 3 1018.6 1017.8 0.0
28/04:30am 8.7 5.5 -0.3 53 3.7 S 6 7 3 4 1018.6 1017.8 0.0
28/04:00am 9.2 6.4 -0.4 51 3.9 SSE 4 7 2 4 1018.6 1017.8 0.0
28/03:30am 10.4 8.3 -0.7 46 4.6 CALM 0 0 0 0 1018.6 1017.8 0.0
28/03:00am 10.0 7.9 -0.5 48 4.3 CALM 0 0 0 0 1018.8 1018.0 0.0
28/02:30am 10.5 7.6 -0.9 45 4.7 NNW 4 6 2 3 1018.9 1018.1 0.0
28/02:00am 11.3 9.2 -0.8 43 5.0 CALM 0 0 0 0 1019.1 1018.3 0.0
28/01:30am 12.0 8.5 -1.5 39 5.5 SSW 7 9 4 5 1019.3 1018.5 0.0
28/01:00am 12.5 8.6 -1.4 38 5.7 SSW 9 11 5 6 1019.5 1018.6 0.0
28/12:30am 11.2 7.0 -0.6 44 4.9 SW 11 13 6 7 1019.5 1018.6 0.0
28/12:00am 12.6 9.2 -0.6 40 5.5 S 7 9 4 5 1019.2 1018.4 0.0
 
Date/Time
WST
Temp
°C
App
Temp
°C
Dew
Point
°C
Rel
Hum
%
Delta-T
°C
Wind Press
QNH
hPa
Press
MSL
hPa
Rain since
9am
mm
Dir  Spd
km/h
Gust
km/h
Spd
kts
Gust
kts
27/11:30pm 12.3 8.5 -0.6 41 5.4 SSW 9 11 5 6 1019.5 1018.6 0.0
27/11:00pm 12.6 10.5 -0.6 40 5.5 CALM 0 0 0 0 1019.3 1018.5 0.0
27/10:30pm 12.9 10.8 -0.7 39 5.7 CALM 0 0 0 0 1019.5 1018.6 0.0
27/10:00pm 13.6 11.6 -0.1 39 5.9 CALM 0 0 0 0 1019.5 1018.6 0.0
27/09:30pm 14.8 12.9 0.3 37 6.3 CALM 0 0 0 0 1019.3 1018.5 0.0
27/09:00pm 14.9 12.5 -0.4 35 6.6 NE 2 6 1 3 1019.6 1018.7 0.0
27/08:30pm 17.2 13.5 -0.1 31 7.7 NE 9 11 5 6 1019.6 1018.7 0.0
27/08:00pm 16.2 13.9 0.3 34 7.0 NW 2 4 1 2 1019.5 1018.6 0.0
27/07:30pm 17.5 14.8 0.2 31 7.7 NW 4 6 2 3 1019.5 1018.6 0.0
27/07:00pm 18.7 15.4 0.3 29 8.3 NW 7 9 4 5 1019.3 1018.5 0.0
27/06:30pm 20.3 17.1 -0.3 25 9.3 NNW 6 9 3 5 1019.0 1018.2 0.0
27/06:00pm 22.6 19.4 -0.8 21 10.7 NNW 6 9 3 5 1018.8 1018.0 0.0
27/05:30pm 26.4 23.0 -2.3 15 13.1 NNW 6 7 3 4 1018.6 1017.8 0.0
27/05:00pm 27.7 23.5 -4.3 12 14.3 NE 9 15 5 8 1018.5 1017.7 0.0
27/04:30pm 28.6 25.0 -3.6 12 14.7 N 6 9 3 5 1018.4 1017.6 0.0
27/04:00pm 28.4 24.0 -2.6 13 14.3 ENE 11 17 6 9 1018.3 1017.4 0.0
27/03:30pm 28.7 24.2 -3.5 12 14.7 NNW 11 17 6 9 1018.3 1017.4 0.0
27/03:00pm 28.8 24.4 -2.3 13 14.5 NE 11 17 6 9 1018.6 1017.8 0.0
27/02:30pm 28.5 23.6 -3.6 12 14.6 NNE 13 20 7 11 1018.8 1018.0 0.0
27/02:00pm 28.3 23.7 -3.8 12 14.5 NNE 11 17 6 9 1018.9 1018.1 0.0
27/01:30pm 28.4 23.5 -3.7 12 14.6 NNE 13 20 7 11 1018.9 1018.1 0.0
27/01:00pm 27.9 22.8 -2.0 14 13.9 NE 15 22 8 12 1019.3 1018.5 0.0
27/12:30pm 27.9 23.2 -2.0 14 13.9 NNE 13 22 7 12 1020.0 1019.1 0.0
27/12:00pm 27.4 22.6 -2.4 14 13.7 NNE 13 20 7 11 1020.5 1019.7 0.0
27/11:30am 26.2 21.9 -1.6 16 12.9 NNE 11 19 6 10 1020.9 1020.1 0.0
27/11:00am 25.7 21.8 -1.2 17 12.5 NNE 9 17 5 9 1021.5 1020.6 0.0
27/10:30am 23.9 21.4 -1.1 19 11.5 NE 2 7 1 4 1022.0 1021.2 0.0
27/10:00am 22.9 20.0 1.3 24 10.3 NNE 6 7 3 4 1022.4 1021.6 0.0
27/09:30am 20.7 18.2 1.6 28 9.0 E 4 7 2 4 1022.6 1021.8 0.0
27/09:00am 18.7 16.9 1.2 31 8.0 CALM 0 0 0 0 1022.4 1021.6 0.0
27/08:30am 16.1 13.4 0.3 34 7.0 S 4 7 2 4 1022.4 1021.6 0.0
27/08:00am 14.3 12.1 0.9 40 5.9 W 2 6 1 3 1022.0 1021.2 0.0
27/07:30am 10.5 8.2 0.3 49 4.3 WSW 2 7 1 4 1021.8 1021.0 0.0
27/07:00am 8.1 5.3 -0.1 56 3.3 WSW 4 7 2 4 1021.5 1020.6 0.0
27/06:30am 7.6 4.2 -0.4 57 3.2 WSW 7 9 4 5 1021.1 1020.3 0.0
27/06:00am 8.5 5.1 -0.3 54 3.6 WSW 7 11 4 6 1020.8 1020.0 0.0
27/05:30am 8.1 4.3 -0.4 55 3.4 SW 9 9 5 5 1020.8 1020.0 0.0
27/05:00am 8.2 4.1 -0.3 55 3.4 SW 11 17 6 9 1020.7 1019.9 0.0
27/04:30am 8.2 5.1 0.0 56 3.3 WSW 6 6 3 3 1020.3 1019.5 0.0
27/04:00am 8.5 5.4 0.2 56 3.4 WSW 6 7 3 4 1020.2 1019.4 0.0
27/03:30am 8.9 6.9 -0.1 53 3.7 CALM 0 0 0 0 1020.3 1019.5 0.0
27/03:00am 9.7 7.7 -0.2 50 4.1 CALM 0 0 0 0 1020.5 1019.7 0.0
27/02:30am 10.5 7.4 0.3 49 4.3 W 6 7 3 4 1020.4 1019.6 0.0
27/02:00am 11.1 8.0 0.2 47 4.6 NW 6 9 3 5 1020.5 1019.7 0.0
27/01:30am 11.5 9.5 0.0 45 4.8 CALM 0 0 0 0 1020.5 1019.7 0.0
27/01:00am 12.5 9.1 -0.4 41 5.4 WSW 7 9 4 5 1020.6 1019.8 0.0
27/12:30am 12.7 9.0 -0.2 41 5.5 SW 9 11 5 6 1020.9 1020.1 0.0
27/12:00am 12.5 9.8 0.3 43 5.2 SSE 4 9 2 5 1020.8 1020.0 0.0
 
Date/Time
WST
Temp
°C
App
Temp
°C
Dew
Point
°C
Rel
Hum
%
Delta-T
°C
Wind Press
QNH
hPa
Press
MSL
hPa
Rain since
9am
mm
Dir  Spd
km/h
Gust
km/h
Spd
kts
Gust
kts
26/11:30pm 13.0 8.9 -0.3 40 5.6 WSW 11 11 6 6 1020.7 1019.9 0.0
26/11:00pm 13.3 9.2 0.0 40 5.7 SW 11 13 6 7 1020.8 1020.0 0.0
26/10:30pm 15.2 11.9 0.2 36 6.6 SE 7 11 4 6 1020.8 1020.0 0.0
26/10:00pm 14.6 12.6 0.1 37 6.3 CALM 0 0 0 0 1020.6 1019.8 0.0
26/09:30pm 15.9 13.9 0.1 34 6.9 CALM 0 0 0 0 1020.6 1019.8 0.0
26/09:00pm 15.6 13.6 0.2 35 6.7 CALM 0 0 0 0 1020.5 1019.7 0.0
26/08:30pm 16.8 13.6 0.5 33 7.3 N 7 9 4 5 1020.3 1019.5 0.0
26/08:00pm 18.8 15.5 0.4 29 8.3 NNE 7 9 4 5 1020.1 1019.3 0.0
26/07:30pm 19.9 16.6 0.4 27 8.9 NE 7 9 4 5 1020.0 1019.1 0.0
26/07:00pm 21.3 17.9 -0.6 23 9.9 ENE 7 9 4 5 1019.7 1018.8 0.0
26/06:30pm 22.6 19.2 -0.8 21 10.7 ENE 7 9 4 5 1019.3 1018.5 0.0
26/06:00pm 24.6 20.7 -1.3 18 11.9 E 9 11 5 6 1019.0 1018.2 0.0
26/05:30pm 26.3 22.3 -2.4 15 13.1 ENE 9 13 5 7 1018.7 1017.9 0.0
26/05:00pm 27.5 23.5 -2.3 14 13.7 NNE 9 13 5 7 1018.6 1017.8 0.0
26/04:30pm 28.0 24.0 -2.0 14 14.0 E 9 13 5 7 1018.8 1018.0 0.0
26/04:00pm 28.1 23.8 -1.9 14 14.0 ENE 11 17 6 9 1018.8 1018.0 0.0
26/03:30pm 28.6 24.7 -1.5 14 14.2 NNE 9 15 5 8 1018.7 1017.9 0.0
26/03:00pm 29.0 24.6 -2.2 13 14.6 N 11 22 6 12 1018.8 1018.0 0.0
26/02:30pm 28.3 23.2 -1.7 14 14.1 NNE 15 22 8 12 1019.1 1018.3 0.0
26/02:00pm 28.7 24.2 -0.5 15 14.0 NNE 13 19 7 10 1019.3 1018.5 0.0
26/01:30pm 28.1 24.3 -0.9 15 13.8 ENE 9 19 5 10 1019.7 1018.8 0.0
26/01:00pm 27.7 23.1 -1.3 15 13.6 NNE 13 22 7 12 1020.1 1019.3 0.0
26/12:30pm 28.2 24.4 -0.9 15 13.8 NNE 9 15 5 8 1020.4 1019.6 0.0
26/12:00pm 27.9 22.9 -1.1 15 13.7 NE 15 26 8 14 1020.8 1020.0 0.0
26/11:30am 27.8 22.5 -0.3 16 13.5 NNE 17 26 9 14 1021.1 1020.3 0.0
26/11:00am 27.0 21.4 -0.1 17 12.9 NNE 19 26 10 14 1021.7 1020.8 0.0
26/10:30am 26.0 20.4 -0.1 18 12.4 NNE 19 26 10 14 1021.9 1021.1 0.0
26/10:00am 25.7 20.4 -0.4 18 12.3 N 17 20 9 11 1022.1 1021.3 0.0
26/09:30am 24.1 21.3 2.9 25 10.5 N 7 9 4 5 1022.1 1021.3 0.0
26/09:00am 21.8 19.3 3.5 30 9.0 NNE 6 9 3 5 1022.0 1021.2 0.0
26/08:30am 18.8 17.5 4.2 38 7.1 CALM 0 0 0 0 1021.9 1021.1 0.0
26/08:00am 14.3 12.9 3.7 49 4.9 CALM 0 0 0 0 1021.6 1020.7 0.0
26/07:30am 11.4 9.9 3.2 57 3.7 CALM 0 0 0 0 1021.1 1020.3 0.0
26/07:00am 9.0 7.4 2.3 63 2.9 CALM 0 0 0 0 1020.7 1019.9 0.0
26/06:30am 9.0 7.3 2.1 62 3.0 CALM 0 2 0 1 1020.4 1019.6 0.0
26/06:00am 9.3 6.6 2.4 62 3.0 SW 6 7 3 4 1020.2 1019.4 0.0
26/05:30am 10.2 8.3 2.6 59 3.4 SW 2 6 1 3 1020.0 1019.1 0.0
26/05:00am 9.9 6.6 2.5 60 3.2 SW 9 9 5 5 1020.0 1019.1 0.0
26/04:30am 11.3 8.5 2.9 56 3.8 S 7 9 4 5 1019.8 1018.9 0.0
26/04:00am 11.4 8.6 2.9 56 3.8 SSW 7 11 4 6 1019.6 1018.7 0.0
26/03:30am 12.1 10.6 3.1 54 4.1 CALM 0 0 0 0 1019.5 1018.6 0.0
26/03:00am 12.3 10.8 3.0 53 4.2 CALM 0 0 0 0 1019.2 1018.4 0.0
26/02:30am 14.6 12.0 3.4 47 5.2 NE 6 11 3 6 1019.3 1018.5 0.0
26/02:00am 13.3 11.8 3.1 50 4.7 CALM 0 0 0 0 1019.6 1018.7 0.0
26/01:30am 13.1 10.4 2.6 49 4.8 N 6 7 3 4 1019.6 1018.7 0.0
26/01:00am 13.5 10.6 2.7 48 4.9 N 7 9 4 5 1019.5 1018.6 0.0
26/12:30am 13.2 10.5 2.7 49 4.8 N 6 7 3 4 1019.3 1018.5 0.0
26/12:00am 13.8 11.2 3.0 48 4.9 N 6 7 3 4 1019.3 1018.5 0.0
 
Date/Time
WST
Temp
°C
App
Temp
°C
Dew
Point
°C
Rel
Hum
%
Delta-T
°C
Wind Press
QNH
hPa
Press
MSL
hPa
Rain since
9am
mm
Dir  Spd
km/h
Gust
km/h
Spd
kts
Gust
kts
25/11:30pm 14.3 12.1 3.2 47 5.1 N 4 6 2 3 1019.6 1018.7 0.0
25/11:00pm 14.6 12.0 3.1 46 5.3 N 6 7 3 4 1019.9 1019.0 0.0
25/10:30pm 15.1 12.5 3.3 45 5.5 N 6 7 3 4 1020.0 1019.1 0.0
25/10:00pm 16.6 13.8 3.3 41 6.3 N 7 9 4 5 1020.1 1019.3 0.0
25/09:30pm 16.8 14.0 3.1 40 6.5 N 7 9 4 5 1020.1 1019.3 0.0
25/09:00pm 16.8 15.3 3.1 40 6.4 CALM 0 0 0 0 1020.0 1019.1 0.0
25/08:30pm 19.0 16.2 3.2 35 7.6 N 7 9 4 5 1019.9 1019.0 0.0
25/08:00pm 19.8 17.1 3.5 34 7.9 N 7 9 4 5 1019.8 1018.9 0.0
25/07:30pm 20.8 18.1 3.5 32 8.5 N 7 9 4 5 1019.7 1018.8 0.0
25/07:00pm 22.0 18.8 3.2 29 9.2 NNE 9 11 5 6 1019.5 1018.6 0.0
25/06:30pm 22.8 19.6 2.8 27 9.8 NNE 9 11 5 6 1019.2 1018.4 0.0
25/06:00pm 23.9 20.5 2.1 24 10.6 NNE 9 13 5 7 1019.0 1018.2 0.0
25/05:30pm 25.8 22.0 1.8 21 11.8 NNE 11 15 6 8 1018.9 1018.1 0.0
25/05:00pm 27.2 23.0 1.6 19 12.6 N 13 17 7 9 1018.7 1017.9 0.0
25/04:30pm 27.8 23.2 1.3 18 13.1 N 15 20 8 11 1018.6 1017.8 0.0
25/04:00pm 28.3 24.4 0.9 17 13.4 NNW 11 20 6 11 1018.4 1017.6 0.0
25/03:30pm 28.3 24.4 0.9 17 13.5 N 11 22 6 12 1018.4 1017.6 0.0
25/03:00pm 28.1 24.0 -0.1 16 13.6 NW 11 24 6 13 1018.2 1017.3 0.0
25/02:30pm 28.0 23.3 0.7 17 13.3 NNW 15 26 8 14 1018.1 1017.2 0.0
25/02:00pm 28.3 24.4 0.9 17 13.4 NNW 11 17 6 9 1018.1 1017.2 0.0
25/01:30pm 27.6 22.0 1.2 18 13.0 NNW 20 30 11 16 1018.2 1017.3 0.0
25/01:00pm 27.3 22.2 0.9 18 12.9 N 17 28 9 15 1018.4 1017.6 0.0
25/12:30pm 27.7 23.9 2.0 19 12.8 NNE 11 20 6 11 1019.0 1018.2 0.0
25/12:00pm 26.6 22.5 2.5 21 12.0 N 13 22 7 12 1019.6 1018.7 0.0
25/11:30am 26.1 24.0 4.0 24 11.3 E 4 9 2 5 1020.1 1019.3 0.0
25/11:00am 24.8 22.3 4.0 26 10.5 E 6 9 3 5 1020.5 1019.7 0.0

Other Formats:

Comma delimited format used in spreadsheet applications
http://www.bom.gov.au/fwo/IDW60801/IDW60801.94317.axf

JavaScript Object Notation format (JSON) in row-major order
http://www.bom.gov.au/fwo/IDW60801/IDW60801.94317.json